createdAt,value
2022-08-25T00:00:18.706Z,77.65
2022-08-25T00:03:04.187Z,77.74
2022-08-25T00:05:33.747Z,77.66
2022-08-25T00:08:06.495Z,77.76
2022-08-25T00:10:37.418Z,77.95
2022-08-25T00:13:07.136Z,78.01
2022-08-25T00:15:36.296Z,78.13
2022-08-25T00:18:05.756Z,78.10
2022-08-25T00:20:48.858Z,78.10
2022-08-25T00:23:18.911Z,78.08
2022-08-25T00:25:47.913Z,78.02
2022-08-25T00:28:17.091Z,77.98
2022-08-25T00:30:46.024Z,77.89
2022-08-25T00:33:14.866Z,77.92
2022-08-25T00:35:45.485Z,77.87
2022-08-25T00:38:14.199Z,77.94
2022-08-25T00:40:42.969Z,77.94
2022-08-25T00:43:12.454Z,77.96
2022-08-25T00:45:40.834Z,78.05
2022-08-25T00:48:09.453Z,78.31
2022-08-25T00:50:37.939Z,78.55
2022-08-25T00:53:08.797Z,78.81
2022-08-25T00:55:40.045Z,78.96
2022-08-25T00:58:29.662Z,79.19
2022-08-25T01:00:58.473Z,79.44
2022-08-25T01:03:33.043Z,79.37
2022-08-25T01:06:04.632Z,79.36
2022-08-25T01:08:34.122Z,79.35
2022-08-25T01:11:05.495Z,79.54
2022-08-25T01:13:51.427Z,79.63
2022-08-25T01:16:20.781Z,79.71
2022-08-25T01:18:57.746Z,79.88
2022-08-25T01:21:29.080Z,80.00
2022-08-25T01:24:00.266Z,80.11
2022-08-25T01:26:32.539Z,80.24
2022-08-25T01:29:25.619Z,80.40
2022-08-25T01:32:03.411Z,80.57
2022-08-25T01:34:34.860Z,80.67
2022-08-25T01:37:03.947Z,80.67
2022-08-25T01:39:39.283Z,80.60
2022-08-25T01:42:09.249Z,80.56
2022-08-25T01:44:40.658Z,80.39
2022-08-25T01:47:09.085Z,80.57
2022-08-25T01:49:37.451Z,80.67
2022-08-25T01:52:12.902Z,80.75
2022-08-25T01:54:41.238Z,80.80
2022-08-25T01:57:09.660Z,80.73
2022-08-25T01:59:38.304Z,80.76
2022-08-25T02:02:06.947Z,80.70
2022-08-25T02:04:35.671Z,80.47
2022-08-25T02:07:07.143Z,80.45
2022-08-25T02:09:37.050Z,80.42
2022-08-25T02:12:05.836Z,80.48
2022-08-25T02:14:35.849Z,80.57
2022-08-25T02:17:05.615Z,80.67
2022-08-25T02:19:34.243Z,80.63
2022-08-25T02:22:02.936Z,80.44
2022-08-25T02:24:31.731Z,80.40
2022-08-25T02:27:00.096Z,80.46
2022-08-25T02:29:28.598Z,80.46
2022-08-25T02:31:56.975Z,80.45
2022-08-25T02:34:25.384Z,80.39
2022-08-25T02:36:53.705Z,80.26
2022-08-25T02:39:22.050Z,80.35
2022-08-25T02:41:50.626Z,80.48
2022-08-25T02:44:18.964Z,80.58
2022-08-25T02:46:47.337Z,80.77
2022-08-25T02:49:15.672Z,80.86
2022-08-25T02:51:44.010Z,80.88
2022-08-25T02:54:12.374Z,80.94
2022-08-25T02:56:42.651Z,80.97
2022-08-25T02:59:12.738Z,80.92
2022-08-25T03:01:41.180Z,80.96
2022-08-25T03:04:10.062Z,80.86
2022-08-25T03:06:38.735Z,80.82
2022-08-25T03:09:07.550Z,80.83
2022-08-25T03:11:38.479Z,81.00
2022-08-25T03:14:09.399Z,81.12
2022-08-25T03:16:38.477Z,81.42
2022-08-25T03:19:07.225Z,81.36
2022-08-25T03:21:38.542Z,81.27
2022-08-25T03:24:07.287Z,81.15
2022-08-25T03:26:53.880Z,81.22
2022-08-25T03:29:28.511Z,81.13
2022-08-25T03:31:59.245Z,81.28
2022-08-25T03:34:30.513Z,81.39
2022-08-25T03:36:59.590Z,81.54
2022-08-25T03:39:29.243Z,81.60
2022-08-25T03:41:57.636Z,81.66
2022-08-25T03:44:25.969Z,81.68
2022-08-25T03:46:54.352Z,81.58
2022-08-25T03:49:24.739Z,81.54
2022-08-25T03:51:55.146Z,81.52
2022-08-25T03:54:25.743Z,81.50
2022-08-25T03:56:54.825Z,81.65
2022-08-25T03:59:23.259Z,81.56
2022-08-25T04:01:55.067Z,81.59
2022-08-25T04:04:24.113Z,81.53
2022-08-25T04:06:53.177Z,81.37
2022-08-25T04:09:21.544Z,81.37
2022-08-25T04:11:52.012Z,81.22
2022-08-25T04:14:23.864Z,81.27
2022-08-25T04:16:53.169Z,81.25
2022-08-25T04:19:22.275Z,81.16
2022-08-25T04:21:51.903Z,80.86
2022-08-25T04:24:25.974Z,80.77
2022-08-25T04:26:54.630Z,80.71
2022-08-25T04:29:25.631Z,80.63
2022-08-25T04:31:55.574Z,80.60
2022-08-25T04:34:29.645Z,80.52
2022-08-25T04:37:03.138Z,80.38
2022-08-25T04:39:32.552Z,80.30
2022-08-25T04:42:02.071Z,80.03
2022-08-25T04:44:32.097Z,79.64
2022-08-25T04:47:01.591Z,78.99
2022-08-25T04:49:30.006Z,78.76
2022-08-25T04:51:58.391Z,78.17
2022-08-25T04:54:28.408Z,77.68
2022-08-25T04:56:58.747Z,77.32
2022-08-25T04:59:30.209Z,76.99
2022-08-25T05:02:03.383Z,76.67
2022-08-25T05:04:34.423Z,76.64
2022-08-25T05:07:03.900Z,76.42
2022-08-25T05:09:33.485Z,75.99
2022-08-25T05:12:03.474Z,75.52
2022-08-25T05:14:33.016Z,75.32
2022-08-25T05:17:02.266Z,75.15
2022-08-25T05:19:31.629Z,74.95
2022-08-25T05:21:59.948Z,74.54
2022-08-25T05:24:28.421Z,74.38
2022-08-25T05:26:57.533Z,74.42
2022-08-25T05:29:25.946Z,74.07
2022-08-25T05:31:54.714Z,73.84
2022-08-25T05:34:23.116Z,73.88
2022-08-25T05:36:51.711Z,73.97
2022-08-25T05:39:20.163Z,73.96
2022-08-25T05:41:48.544Z,73.95
2022-08-25T05:44:20.988Z,73.24
2022-08-25T05:46:51.433Z,73.14
2022-08-25T05:49:20.017Z,73.26
2022-08-25T05:51:48.503Z,73.66
2022-08-25T05:54:16.881Z,73.75
2022-08-25T05:56:45.708Z,73.89
2022-08-25T05:59:14.070Z,73.74
2022-08-25T06:02:01.328Z,73.36
2022-08-25T06:04:30.027Z,72.83
2022-08-25T06:06:58.583Z,71.84
2022-08-25T06:09:26.955Z,71.14
2022-08-25T06:11:55.557Z,69.89
2022-08-25T06:14:25.240Z,68.90
2022-08-25T06:16:53.710Z,68.50
2022-08-25T06:19:23.779Z,67.34
2022-08-25T06:21:56.825Z,66.23
2022-08-25T06:24:27.329Z,64.76
2022-08-25T06:26:55.528Z,63.53
2022-08-25T06:29:24.136Z,61.97
2022-08-25T06:31:52.825Z,61.61
2022-08-25T06:34:23.900Z,61.46
2022-08-25T06:36:53.285Z,61.25
2022-08-25T06:39:21.738Z,58.95
2022-08-25T06:41:56.981Z,58.12
2022-08-25T06:44:27.954Z,58.50
2022-08-25T06:46:56.318Z,57.69
2022-08-25T06:49:29.300Z,59.22
2022-08-25T06:52:00.142Z,57.40
2022-08-25T06:54:28.416Z,56.77
2022-08-25T06:56:57.209Z,55.80
2022-08-25T06:59:31.980Z,56.10
2022-08-25T07:02:03.303Z,55.44
2022-08-25T07:04:32.861Z,54.44
2022-08-25T07:07:01.433Z,54.87
2022-08-25T07:09:29.702Z,53.80
2022-08-25T07:11:57.952Z,53.57
2022-08-25T07:14:26.255Z,53.25
2022-08-25T07:16:54.428Z,52.40
2022-08-25T07:19:23.164Z,52.04
2022-08-25T07:21:53.048Z,51.50
2022-08-25T07:24:21.851Z,48.02
2022-08-25T07:26:50.474Z,48.41
2022-08-25T07:29:32.780Z,47.20
2022-08-25T07:32:02.899Z,47.77
2022-08-25T07:34:52.504Z,49.42
2022-08-25T07:37:47.774Z,49.08
2022-08-25T07:40:21.470Z,47.64
2022-08-25T07:42:51.383Z,47.08
2022-08-25T07:45:21.128Z,50.24
2022-08-25T07:47:51.471Z,49.08
2022-08-25T07:50:20.193Z,47.86
2022-08-25T07:52:50.903Z,48.06
2022-08-25T07:55:23.689Z,49.91
2022-08-25T07:57:55.369Z,50.44
2022-08-25T08:00:28.032Z,49.47
2022-08-25T08:02:57.397Z,50.34
2022-08-25T08:05:26.384Z,51.22
2022-08-25T08:07:55.132Z,50.55
2022-08-25T08:13:14.372Z,50.41
2022-08-25T08:15:47.001Z,49.08
2022-08-25T08:18:16.139Z,47.14
2022-08-25T08:20:45.636Z,47.83
2022-08-25T08:23:14.082Z,46.25
2022-08-25T08:25:42.276Z,45.11
2022-08-25T08:28:10.896Z,45.28
2022-08-25T08:30:39.398Z,44.02
2022-08-25T08:33:11.232Z,42.97
2022-08-25T08:35:41.991Z,41.08
2022-08-25T08:38:16.020Z,41.80
2022-08-25T08:41:23.074Z,41.34
2022-08-25T08:43:56.697Z,40.20
2022-08-25T08:46:36.811Z,39.61
2022-08-25T08:49:17.047Z,38.57
2022-08-25T08:51:54.155Z,36.59
2022-08-25T08:54:26.352Z,37.77
2022-08-25T08:57:03.916Z,35.01
2022-08-25T08:59:42.045Z,34.93
2022-08-25T09:02:14.785Z,35.65
2022-08-25T09:05:04.511Z,35.47
2022-08-25T09:07:41.257Z,33.48
2022-08-25T09:10:11.216Z,31.76
2022-08-25T09:12:59.579Z,30.43
2022-08-25T09:15:57.507Z,31.28
2022-08-25T09:18:51.349Z,31.84
2022-08-25T09:21:25.925Z,31.60
2022-08-25T09:23:57.151Z,33.82
2022-08-25T09:26:38.135Z,31.81
2022-08-25T09:29:16.245Z,31.74
2022-08-25T09:31:45.740Z,30.53
2022-08-25T09:34:19.755Z,32.51
2022-08-25T09:36:51.002Z,32.00
2022-08-25T09:39:20.970Z,31.75
2022-08-25T09:41:52.266Z,28.99
2022-08-25T09:44:24.311Z,29.59
2022-08-25T09:46:55.682Z,28.74
2022-08-25T09:49:30.976Z,28.33
2022-08-25T09:52:19.346Z,28.90
2022-08-25T09:54:50.414Z,28.35
2022-08-25T09:57:48.184Z,29.79
2022-08-25T10:00:23.791Z,30.19
2022-08-25T10:03:05.904Z,30.85
2022-08-25T10:05:36.776Z,29.61
2022-08-25T10:08:11.301Z,27.88
2022-08-25T10:10:53.399Z,27.96
2022-08-25T10:13:23.896Z,28.20
2022-08-25T10:16:18.059Z,28.47
2022-08-25T10:19:07.332Z,30.08
2022-08-25T10:21:36.579Z,25.59
2022-08-25T10:24:06.286Z,24.88
2022-08-25T10:26:42.759Z,26.18
2022-08-25T10:29:12.186Z,26.15
2022-08-25T10:31:56.998Z,26.45
2022-08-25T10:34:40.242Z,24.31
2022-08-25T10:37:19.690Z,23.30
2022-08-25T10:40:06.994Z,23.55
2022-08-25T10:42:53.799Z,24.04
2022-08-25T10:45:42.594Z,23.57
2022-08-25T10:48:13.237Z,23.33
2022-08-25T10:50:45.574Z,23.41
2022-08-25T10:53:40.138Z,22.31
2022-08-25T10:56:17.787Z,22.65
2022-08-25T10:59:05.002Z,23.24
2022-08-25T11:01:53.671Z,23.57
2022-08-25T11:04:26.409Z,22.64
2022-08-25T11:06:58.707Z,22.71
2022-08-25T11:09:36.377Z,22.91
2022-08-25T11:12:08.639Z,23.11
2022-08-25T11:14:53.557Z,23.80
2022-08-25T11:17:41.845Z,23.46
2022-08-25T11:20:19.112Z,22.73
2022-08-25T11:22:55.455Z,23.01
2022-08-25T11:25:29.624Z,23.11
2022-08-25T11:28:00.712Z,22.52
2022-08-25T11:30:29.197Z,22.91
2022-08-25T11:32:58.005Z,22.57
2022-08-25T11:35:37.657Z,22.51
2022-08-25T11:38:25.160Z,23.62
2022-08-25T11:41:15.590Z,23.13
2022-08-25T11:44:02.408Z,22.82
2022-08-25T11:46:31.108Z,22.84
2022-08-25T11:49:20.206Z,22.47
2022-08-25T11:51:51.114Z,23.25
2022-08-25T11:54:19.386Z,23.81
2022-08-25T11:56:59.344Z,22.89
2022-08-25T11:59:54.299Z,22.29
2022-08-25T12:02:35.764Z,22.99
2022-08-25T12:05:24.803Z,23.47
2022-08-25T12:08:11.826Z,22.98
2022-08-25T12:10:52.307Z,22.69
2022-08-25T12:13:25.819Z,22.89
2022-08-25T12:16:02.418Z,22.19
2022-08-25T12:18:31.291Z,22.16
2022-08-25T12:21:00.296Z,22.06
2022-08-25T12:23:45.537Z,22.33
2022-08-25T12:26:36.841Z,22.71
2022-08-25T12:29:14.960Z,22.86
2022-08-25T12:31:52.322Z,23.15
2022-08-25T12:34:20.503Z,22.58
2022-08-25T12:37:15.440Z,23.53
2022-08-25T12:39:58.675Z,23.03
2022-08-25T12:42:33.419Z,23.00
2022-08-25T12:45:17.005Z,23.62
2022-08-25T12:47:47.775Z,23.78
2022-08-25T12:50:42.331Z,24.44
2022-08-25T12:53:11.659Z,24.16
2022-08-25T12:55:42.115Z,24.18
2022-08-25T12:58:11.772Z,23.48
2022-08-25T13:00:57.856Z,24.43
2022-08-25T13:03:58.556Z,25.00
2022-08-25T13:06:32.621Z,24.41
2022-08-25T13:09:25.208Z,23.86
2022-08-25T13:11:53.348Z,22.91
2022-08-25T13:14:26.980Z,23.58
2022-08-25T13:16:57.813Z,22.38
2022-08-25T13:19:27.536Z,22.82
2022-08-25T13:22:17.958Z,23.12
2022-08-25T13:24:50.605Z,23.12
2022-08-25T13:27:24.643Z,23.56
2022-08-25T13:29:58.424Z,22.80
2022-08-25T13:32:29.703Z,23.65
2022-08-25T13:35:17.814Z,23.22
2022-08-25T13:37:49.252Z,23.69
2022-08-25T13:40:25.925Z,23.78
2022-08-25T13:43:02.919Z,23.63
2022-08-25T13:45:34.941Z,24.03
2022-08-25T13:48:23.156Z,23.46
2022-08-25T13:51:05.931Z,24.40
2022-08-25T13:53:34.293Z,23.62
2022-08-25T13:56:03.813Z,23.93
2022-08-25T13:58:38.869Z,24.18
2022-08-25T14:01:22.143Z,24.91
2022-08-25T14:04:24.529Z,23.81
2022-08-25T14:07:12.628Z,23.99
2022-08-25T14:09:45.792Z,24.08
2022-08-25T14:12:33.500Z,24.54
2022-08-25T14:15:04.875Z,25.01
2022-08-25T14:17:40.327Z,25.08
2022-08-25T14:20:27.489Z,24.74
2022-08-25T14:23:05.388Z,25.02
2022-08-25T14:25:40.501Z,25.36
2022-08-25T14:28:13.875Z,25.20
2022-08-25T14:31:02.515Z,25.29
2022-08-25T14:33:36.242Z,25.59
2022-08-25T14:36:06.290Z,26.25
2022-08-25T14:38:35.719Z,26.47
2022-08-25T14:43:40.563Z,25.51
2022-08-25T14:46:18.906Z,26.20
2022-08-25T14:48:50.066Z,26.34
2022-08-25T14:51:18.310Z,26.66
2022-08-25T14:53:46.835Z,28.32
2022-08-25T14:56:15.041Z,27.77
2022-08-25T14:58:51.596Z,27.50
2022-08-25T15:01:29.619Z,26.06
2022-08-25T15:04:20.754Z,25.84
2022-08-25T15:06:51.484Z,26.06
2022-08-25T15:09:21.765Z,25.84
2022-08-25T15:11:59.458Z,26.40
2022-08-25T15:14:29.196Z,27.14
2022-08-25T15:17:03.853Z,27.05
2022-08-25T15:19:32.424Z,28.17
2022-08-25T15:22:00.622Z,27.87
2022-08-25T15:24:29.388Z,27.95
2022-08-25T15:27:02.177Z,28.46
2022-08-25T15:29:31.674Z,28.79
2022-08-25T15:32:00.664Z,29.27
2022-08-25T15:34:29.752Z,29.25
2022-08-25T15:36:58.864Z,29.34
2022-08-25T15:39:27.798Z,29.26
2022-08-25T15:42:02.663Z,29.66
2022-08-25T15:44:33.101Z,29.27
2022-08-25T15:47:01.283Z,29.01
2022-08-25T15:49:31.329Z,29.23
2022-08-25T15:52:00.492Z,29.35
2022-08-25T15:54:29.138Z,29.45
2022-08-25T15:56:58.825Z,29.90
2022-08-25T15:59:29.007Z,30.09
2022-08-25T16:01:57.659Z,30.03
2022-08-25T16:04:27.554Z,30.00
2022-08-25T16:06:55.850Z,30.83
2022-08-25T16:09:24.073Z,30.81
2022-08-25T16:11:56.168Z,30.95
2022-08-25T16:14:27.803Z,32.04
2022-08-25T16:16:58.408Z,32.25
2022-08-25T16:19:29.146Z,32.87
2022-08-25T16:21:58.357Z,32.66
2022-08-25T16:24:28.360Z,32.94
2022-08-25T16:27:11.609Z,33.35
2022-08-25T16:29:44.166Z,33.61
2022-08-25T16:32:13.981Z,33.63
2022-08-25T16:34:43.046Z,33.51
2022-08-25T16:37:13.740Z,33.75
2022-08-25T16:39:45.782Z,33.52
2022-08-25T16:42:14.667Z,33.81
2022-08-25T16:44:43.061Z,33.92
2022-08-25T16:47:13.957Z,34.42
2022-08-25T16:49:42.760Z,34.78
2022-08-25T16:52:31.172Z,34.96
2022-08-25T16:55:16.489Z,35.50
2022-08-25T16:57:47.449Z,35.71
2022-08-25T17:00:18.066Z,36.06
2022-08-25T17:02:48.729Z,36.23
2022-08-25T17:05:18.258Z,36.80
2022-08-25T17:08:06.790Z,36.71
2022-08-25T17:10:36.937Z,36.90
2022-08-25T17:13:05.644Z,37.17
2022-08-25T17:15:33.819Z,37.43
2022-08-25T17:18:02.439Z,37.42
2022-08-25T17:20:32.881Z,37.52
2022-08-25T17:23:03.556Z,37.69
2022-08-25T17:25:43.146Z,38.13
2022-08-25T17:28:12.865Z,38.10
2022-08-25T17:30:42.072Z,38.39
2022-08-25T17:33:10.644Z,38.67
2022-08-25T17:35:39.844Z,38.53
2022-08-25T17:38:08.677Z,38.63
2022-08-25T17:40:37.766Z,38.81
2022-08-25T17:43:09.184Z,38.94
2022-08-25T17:45:39.371Z,39.09
2022-08-25T17:48:09.061Z,42.02
2022-08-25T17:50:37.477Z,40.64
2022-08-25T17:53:11.029Z,40.24
2022-08-25T17:55:43.141Z,41.19
2022-08-25T17:58:13.177Z,41.71
2022-08-25T18:00:44.075Z,41.88
2022-08-25T18:03:12.519Z,42.18
2022-08-25T18:05:40.764Z,42.01
2022-08-25T18:08:10.704Z,42.49
2022-08-25T18:10:39.857Z,43.11
2022-08-25T18:13:08.608Z,43.40
2022-08-25T18:15:36.844Z,43.30
2022-08-25T18:18:05.657Z,43.43
2022-08-25T18:20:34.409Z,43.73
2022-08-25T18:23:05.829Z,43.80
2022-08-25T18:25:37.822Z,43.84
2022-08-25T18:28:10.395Z,43.73
2022-08-25T18:30:38.996Z,43.37
2022-08-25T18:33:07.594Z,43.61
2022-08-25T18:35:35.922Z,43.50
2022-08-25T18:38:26.162Z,43.60
2022-08-25T18:40:55.697Z,44.07
2022-08-25T18:43:24.027Z,44.58
2022-08-25T18:45:52.753Z,44.67
2022-08-25T18:48:26.665Z,44.34
2022-08-25T18:50:55.430Z,44.46
2022-08-25T18:53:36.672Z,44.44
2022-08-25T18:56:06.257Z,44.51
2022-08-25T18:58:34.495Z,44.67
2022-08-25T19:01:04.703Z,45.03
2022-08-25T19:03:33.517Z,45.03
2022-08-25T19:06:02.836Z,45.08
2022-08-25T19:08:31.170Z,45.30
2022-08-25T19:10:59.357Z,45.59
2022-08-25T19:13:27.595Z,45.75
2022-08-25T19:15:56.113Z,45.72
2022-08-25T19:18:26.000Z,46.46
2022-08-25T19:20:59.130Z,46.33
2022-08-25T19:23:27.513Z,46.57
2022-08-25T19:25:55.675Z,47.57
2022-08-25T19:28:28.465Z,48.36
2022-08-25T19:30:57.739Z,48.90
2022-08-25T19:33:42.038Z,48.95
2022-08-25T19:36:13.116Z,48.83
2022-08-25T19:38:41.925Z,49.13
2022-08-25T19:41:14.649Z,49.22
2022-08-25T19:43:56.458Z,49.26
2022-08-25T19:46:32.294Z,49.54
2022-08-25T19:49:08.525Z,50.15
2022-08-25T19:51:43.869Z,50.38
2022-08-25T19:54:15.334Z,50.55
2022-08-25T19:56:54.661Z,50.11
2022-08-25T19:59:25.375Z,50.39
2022-08-25T20:01:54.304Z,50.71
2022-08-25T20:04:24.129Z,50.60
2022-08-25T20:06:55.307Z,50.72
2022-08-25T20:09:39.059Z,50.61
2022-08-25T20:12:10.711Z,50.86
2022-08-25T20:14:39.143Z,51.72
2022-08-25T20:17:14.481Z,51.69
2022-08-25T20:19:54.477Z,51.36
2022-08-25T20:22:26.208Z,51.12
2022-08-25T20:24:57.959Z,51.10
2022-08-25T20:27:37.454Z,51.28
2022-08-25T20:30:07.881Z,52.42
2022-08-25T20:32:37.018Z,52.45
2022-08-25T20:35:08.998Z,52.33
2022-08-25T20:37:37.987Z,52.21
2022-08-25T20:40:07.693Z,52.20
2022-08-25T20:42:35.930Z,51.83
2022-08-25T20:45:06.746Z,51.64
2022-08-25T20:47:36.445Z,52.30
2022-08-25T20:50:07.466Z,52.37
2022-08-25T20:52:36.553Z,53.12
2022-08-25T20:55:08.580Z,53.36
2022-08-25T20:57:36.762Z,53.42
2022-08-25T21:00:06.124Z,53.20
2022-08-25T21:02:34.391Z,53.11
2022-08-25T21:05:03.693Z,52.47
2022-08-25T21:07:31.899Z,52.29
2022-08-25T21:10:10.759Z,52.27
2022-08-25T21:12:43.377Z,52.88
2022-08-25T21:15:13.782Z,55.41
2022-08-25T21:17:49.499Z,55.52
2022-08-25T21:20:25.767Z,53.58
2022-08-25T21:22:54.608Z,53.97
2022-08-25T21:25:23.210Z,53.74
2022-08-25T21:27:51.355Z,53.66
2022-08-25T21:30:19.578Z,53.90
2022-08-25T21:32:53.075Z,54.31
2022-08-25T21:35:23.371Z,55.44
2022-08-25T21:37:53.405Z,56.08
2022-08-25T21:40:23.284Z,56.53
2022-08-25T21:42:52.219Z,56.95
2022-08-25T21:45:21.783Z,56.68
2022-08-25T21:47:51.752Z,56.05
2022-08-25T21:50:21.140Z,55.89
2022-08-25T21:52:54.483Z,55.96
2022-08-25T21:55:24.035Z,56.14
2022-08-25T21:57:54.835Z,56.05
2022-08-25T22:00:23.177Z,56.92
2022-08-25T22:02:52.093Z,57.55
2022-08-25T22:05:20.333Z,57.86
2022-08-25T22:07:48.553Z,57.32
2022-08-25T22:10:18.185Z,56.77
2022-08-25T22:12:47.128Z,56.54
2022-08-25T22:15:16.698Z,56.37
2022-08-25T22:17:48.172Z,56.44
2022-08-25T22:20:17.775Z,56.86
2022-08-25T22:22:46.075Z,57.50
2022-08-25T22:25:14.314Z,57.95
2022-08-25T22:27:43.116Z,58.41
2022-08-25T22:30:13.927Z,58.36
2022-08-25T22:32:42.743Z,57.86
2022-08-25T22:35:14.044Z,57.72
2022-08-25T22:37:43.161Z,57.59
2022-08-25T22:40:11.754Z,57.20
2022-08-25T22:42:40.536Z,57.00
2022-08-25T22:45:10.605Z,57.06
2022-08-25T22:47:38.786Z,58.87
2022-08-25T22:50:09.808Z,59.18
2022-08-25T22:52:38.473Z,57.84
2022-08-25T22:55:11.291Z,57.97
2022-08-25T22:57:40.752Z,58.50
2022-08-25T23:00:10.674Z,58.24
2022-08-25T23:02:39.038Z,58.02
2022-08-25T23:05:08.466Z,58.28
2022-08-25T23:07:37.798Z,58.20
2022-08-25T23:10:10.530Z,58.33
2022-08-25T23:12:39.913Z,58.26
2022-08-25T23:15:12.921Z,58.32
2022-08-25T23:17:42.619Z,58.62
2022-08-25T23:20:29.839Z,58.71
2022-08-25T23:22:59.021Z,58.49
2022-08-25T23:25:27.361Z,58.20
2022-08-25T23:27:55.550Z,57.98
2022-08-25T23:30:27.127Z,57.83
2022-08-25T23:32:55.547Z,57.78
2022-08-25T23:35:23.689Z,57.57
2022-08-25T23:37:51.825Z,57.43
2022-08-25T23:40:20.424Z,57.30
2022-08-25T23:42:48.596Z,57.24
2022-08-25T23:45:16.793Z,57.05
2022-08-25T23:47:44.945Z,56.29
2022-08-25T23:50:13.127Z,56.32
2022-08-25T23:52:41.346Z,56.32
2022-08-25T23:55:10.141Z,57.42
2022-08-25T23:57:38.870Z,58.86
